Time;durP1;ratioP1;P1;durP2;ratioP2;P2;SDS_P1;SDS_P2;PMS_P1;PMS_P2;Temp;Humidity;BMP_temperature;BMP_pressure;BME280_temperature;BME280_humidity;BME280_pressure;Samples;Min_cycle;Max_cycle;Signal;HPM_P1;HPM_P2
2021/06/15 00:00:13;;;;;;;21.25;11.15;;;;;;;;;;4991559;28;20127;-87
2021/06/15 00:02:40;;;;;;;23.92;12.48;;;;;;;;;;5057938;28;20054;-87
2021/06/15 00:05:09;;;;;;;25.35;10.80;;;;;;;;;;5074481;28;20059;-87
2021/06/15 00:07:37;;;;;;;21.23;10.68;;;;;;;;;;5093349;28;20812;-87
2021/06/15 00:10:06;;;;;;;22.92;10.95;;;;;;;;;;5075626;28;20085;-87
2021/06/15 00:12:33;;;;;;;22.48;11.05;;;;;;;;;;5093876;28;20135;-88
2021/06/15 00:15:01;;;;;;;19.23;10.98;;;;;;;;;;5093973;28;20052;-87
2021/06/15 00:17:28;;;;;;;23.05;10.60;;;;;;;;;;5057255;28;20107;-86
2021/06/15 00:19:55;;;;;;;20.42;9.88;;;;;;;;;;5074789;28;20052;-87
2021/06/15 00:22:23;;;;;;;18.83;10.48;;;;;;;;;;5082555;28;20414;-87
2021/06/15 00:24:50;;;;;;;18.17;9.93;;;;;;;;;;5057868;28;20074;-86
2021/06/15 00:27:17;;;;;;;27.42;12.32;;;;;;;;;;4990874;28;20082;-87
2021/06/15 00:29:44;;;;;;;22.15;11.85;;;;;;;;;;5058073;28;20077;-86
2021/06/15 00:32:12;;;;;;;23.60;12.13;;;;;;;;;;5074474;28;20062;-87
2021/06/15 00:34:39;;;;;;;28.00;12.55;;;;;;;;;;5074384;28;20676;-87
2021/06/15 00:37:06;;;;;;;34.40;14.70;;;;;;;;;;5074126;28;20496;-87
2021/06/15 00:39:33;;;;;;;29.70;14.88;;;;;;;;;;5074991;28;20135;-87
2021/06/15 00:42:00;;;;;;;25.00;13.82;;;;;;;;;;5074363;28;20082;-87
2021/06/15 00:44:32;;;;;;;44.15;14.23;;;;;;;;;;5074417;28;20134;-86
2021/06/15 00:46:59;;;;;;;32.72;14.68;;;;;;;;;;5043339;28;20114;-86
2021/06/15 00:49:28;;;;;;;30.13;14.93;;;;;;;;;;5036849;28;20063;-86
2021/06/15 00:51:56;;;;;;;26.60;13.48;;;;;;;;;;5008710;28;20044;-86
2021/06/15 00:54:23;;;;;;;26.10;13.55;;;;;;;;;;5091468;28;20559;-87
2021/06/15 00:56:51;;;;;;;29.05;13.73;;;;;;;;;;5073210;28;20151;-86
2021/06/15 00:59:18;;;;;;;32.60;14.55;;;;;;;;;;5074073;28;20454;-86
2021/06/15 01:01:46;;;;;;;29.95;14.10;;;;;;;;;;5072998;28;20106;-87
2021/06/15 01:04:14;;;;;;;26.17;13.32;;;;;;;;;;5074472;28;20605;-85
2021/06/15 01:06:41;;;;;;;32.70;14.00;;;;;;;;;;5074214;28;20072;-87
2021/06/15 01:09:20;;;;;;;40.75;14.57;;;;;;;;;;5073325;28;20489;-86
2021/06/15 01:12:11;;;;;;;27.20;12.38;;;;;;;;;;5091967;28;20480;-86
2021/06/15 01:14:53;;;;;;;31.52;13.98;;;;;;;;;;5038316;28;20044;-87
2021/06/15 01:17:35;;;;;;;29.48;14.23;;;;;;;;;;5073916;28;20609;-87
2021/06/15 01:20:29;;;;;;;30.33;13.40;;;;;;;;;;5073629;28;20091;-87
2021/06/15 01:23:11;;;;;;;34.65;14.30;;;;;;;;;;5064819;28;20113;-87
2021/06/15 01:25:42;;;;;;;43.67;14.10;;;;;;;;;;5053495;28;20048;-86
2021/06/15 01:28:12;;;;;;;28.58;14.82;;;;;;;;;;5053338;28;20443;-87
2021/06/15 01:30:49;;;;;;;25.88;13.43;;;;;;;;;;5053931;28;20044;-87
2021/06/15 01:33:18;;;;;;;29.55;15.23;;;;;;;;;;5053815;28;20048;-88
2021/06/15 01:35:46;;;;;;;25.75;13.82;;;;;;;;;;5053175;28;20091;-86
2021/06/15 01:38:14;;;;;;;28.13;13.68;;;;;;;;;;5053447;28;20082;-87
2021/06/15 01:40:51;;;;;;;30.45;14.70;;;;;;;;;;5060351;28;20085;-87
2021/06/15 01:43:21;;;;;;;28.10;14.55;;;;;;;;;;5072655;28;20075;-87
2021/06/15 01:45:51;;;;;;;36.17;13.93;;;;;;;;;;5073199;28;20082;-87
2021/06/15 01:48:29;;;;;;;36.88;14.95;;;;;;;;;;5073363;28;20044;-87
2021/06/15 01:50:56;;;;;;;32.70;14.50;;;;;;;;;;5073038;28;20611;-87
2021/06/15 01:53:24;;;;;;;37.88;13.73;;;;;;;;;;5064615;28;20086;-87
2021/06/15 01:55:57;;;;;;;35.47;13.68;;;;;;;;;;5062818;28;20446;-88
2021/06/15 01:58:27;;;;;;;37.65;16.42;;;;;;;;;;5053565;28;20079;-88
2021/06/15 02:00:56;;;;;;;25.80;12.70;;;;;;;;;;5060799;28;20044;-88
2021/06/15 02:03:24;;;;;;;28.05;13.63;;;;;;;;;;5071729;28;20076;-87
2021/06/15 02:05:53;;;;;;;32.40;13.25;;;;;;;;;;5072632;28;20048;-88
2021/06/15 02:08:41;;;;;;;32.88;13.05;;;;;;;;;;5071466;28;20052;-87
2021/06/15 02:11:08;;;;;;;31.80;12.50;;;;;;;;;;5043866;28;20050;-87
2021/06/15 02:13:46;;;;;;;29.70;13.18;;;;;;;;;;5052967;28;20052;-88
2021/06/15 02:16:15;;;;;;;30.67;13.05;;;;;;;;;;5053322;28;20053;-87
2021/06/15 02:18:45;;;;;;;25.92;13.43;;;;;;;;;;5053541;28;20066;-88
2021/06/15 02:21:14;;;;;;;29.20;12.77;;;;;;;;;;5053575;28;20084;-88
2021/06/15 02:23:43;;;;;;;29.65;12.45;;;;;;;;;;5053163;28;20412;-88
2021/06/15 02:26:12;;;;;;;24.88;12.05;;;;;;;;;;5071616;28;20083;-88
2021/06/15 02:28:40;;;;;;;21.63;12.05;;;;;;;;;;5070441;28;20090;-88
2021/06/15 02:31:10;;;;;;;36.15;13.15;;;;;;;;;;5072990;28;20071;-86
2021/06/15 02:33:39;;;;;;;27.00;13.15;;;;;;;;;;5091545;28;20048;-88
2021/06/15 02:36:11;;;;;;;27.60;12.23;;;;;;;;;;5091205;28;20504;-87
2021/06/15 02:38:40;;;;;;;27.38;12.05;;;;;;;;;;5090390;28;20113;-87
2021/06/15 02:41:10;;;;;;;29.15;12.88;;;;;;;;;;5072200;28;20060;-87
2021/06/15 02:43:38;;;;;;;25.38;11.02;;;;;;;;;;5070645;28;20787;-88
2021/06/15 02:46:07;;;;;;;22.83;10.40;;;;;;;;;;5053037;28;20083;-87
2021/06/15 02:48:36;;;;;;;31.10;10.38;;;;;;;;;;5057259;28;20099;-88
2021/06/15 02:51:06;;;;;;;16.30;8.40;;;;;;;;;;5072871;28;20075;-88
2021/06/15 02:53:36;;;;;;;27.65;9.60;;;;;;;;;;5072985;28;20076;-87
2021/06/15 02:56:08;;;;;;;24.65;8.90;;;;;;;;;;5073168;28;20095;-87
2021/06/15 02:58:35;;;;;;;20.17;8.38;;;;;;;;;;5073132;28;20048;-88
2021/06/15 03:01:03;;;;;;;22.02;9.07;;;;;;;;;;5075202;28;20063;-88
2021/06/15 03:03:30;;;;;;;30.88;9.35;;;;;;;;;;5076359;28;20079;-87
2021/06/15 03:05:58;;;;;;;18.27;7.53;;;;;;;;;;5077346;28;20115;-88
2021/06/15 03:08:26;;;;;;;17.60;6.70;;;;;;;;;;5076304;28;20063;-87
2021/06/15 03:10:53;;;;;;;18.60;6.45;;;;;;;;;;5070706;28;20119;-89
2021/06/15 03:13:42;;;;;;;11.48;6.47;;;;;;;;;;5058608;28;20129;-87
2021/06/15 03:16:12;;;;;;;16.00;6.50;;;;;;;;;;5029030;28;20405;-88
2021/06/15 03:18:53;;;;;;;16.70;5.90;;;;;;;;;;5094268;28;20382;-88
2021/06/15 03:21:23;;;;;;;16.80;6.53;;;;;;;;;;5076673;28;20083;-87
2021/06/15 03:23:58;;;;;;;20.45;6.43;;;;;;;;;;5094071;28;20140;-88
2021/06/15 03:26:35;;;;;;;18.90;6.40;;;;;;;;;;5094934;28;20079;-88
2021/06/15 03:29:02;;;;;;;18.50;5.70;;;;;;;;;;5076561;28;20075;-88
2021/06/15 03:31:40;;;;;;;21.58;6.50;;;;;;;;;;5076169;28;20052;-87
2021/06/15 03:34:09;;;;;;;16.70;5.55;;;;;;;;;;5057989;28;20087;-87
2021/06/15 03:36:39;;;;;;;20.00;5.75;;;;;;;;;;5049747;28;20096;-88
2021/06/15 03:39:07;;;;;;;16.52;6.00;;;;;;;;;;5075907;28;20091;-87
2021/06/15 03:41:35;;;;;;;14.27;5.22;;;;;;;;;;5065877;28;20044;-88
2021/06/15 03:44:04;;;;;;;15.10;4.53;;;;;;;;;;5075332;28;20394;-87
2021/06/15 03:46:32;;;;;;;15.95;4.95;;;;;;;;;;5093488;28;20136;-87
2021/06/15 03:49:01;;;;;;;13.15;5.18;;;;;;;;;;5075815;28;20048;-87
2021/06/15 03:51:49;;;;;;;14.75;3.88;;;;;;;;;;5093180;28;20144;-88
2021/06/15 03:54:16;;;;;;;19.60;4.20;;;;;;;;;;5075791;28;20083;-87
2021/06/15 03:56:48;;;;;;;19.95;5.20;;;;;;;;;;5075074;28;20047;-88
2021/06/15 03:59:17;;;;;;;20.35;5.03;;;;;;;;;;5074967;28;20080;-88
2021/06/15 04:01:45;;;;;;;23.52;4.93;;;;;;;;;;5075202;28;20123;-87
2021/06/15 04:04:15;;;;;;;13.73;5.03;;;;;;;;;;5075222;28;20048;-87
2021/06/15 04:06:49;;;;;;;24.45;5.55;;;;;;;;;;5074726;28;20416;-86
2021/06/15 04:09:19;;;;;;;16.45;4.63;;;;;;;;;;5075056;28;20135;-88
2021/06/15 04:11:47;;;;;;;14.48;5.13;;;;;;;;;;5074130;28;20076;-88
2021/06/15 04:14:16;;;;;;;19.77;5.40;;;;;;;;;;5074535;28;20083;-88
2021/06/15 04:16:44;;;;;;;14.00;5.38;;;;;;;;;;5093132;28;20144;-88
2021/06/15 04:19:21;;;;;;;18.45;4.63;;;;;;;;;;5075309;28;20565;-87
2021/06/15 04:21:53;;;;;;;28.45;4.93;;;;;;;;;;5092581;28;20556;-88
2021/06/15 04:24:24;;;;;;;14.75;4.25;;;;;;;;;;5072229;28;20059;-88
2021/06/15 04:26:54;;;;;;;25.23;5.22;;;;;;;;;;5055110;28;20072;-88
2021/06/15 04:29:22;;;;;;;15.90;4.35;;;;;;;;;;5037247;28;20495;-87
2021/06/15 04:31:52;;;;;;;17.50;4.57;;;;;;;;;;5055099;28;20083;-87
2021/06/15 04:34:22;;;;;;;18.85;4.85;;;;;;;;;;5074393;28;20083;-88
2021/06/15 04:36:50;;;;;;;14.60;4.97;;;;;;;;;;5057860;28;20105;-87
2021/06/15 04:39:21;;;;;;;13.40;5.63;;;;;;;;;;5075253;28;20075;-87
2021/06/15 04:42:12;;;;;;;11.30;4.47;;;;;;;;;;5057515;28;20054;-87
2021/06/15 04:44:42;;;;;;;16.35;4.40;;;;;;;;;;5057020;28;20086;-88
2021/06/15 04:47:13;;;;;;;11.95;4.45;;;;;;;;;;5055715;28;20062;-87
2021/06/15 04:49:50;;;;;;;14.23;4.72;;;;;;;;;;5057060;28;20053;-87
2021/06/15 04:52:19;;;;;;;14.35;4.72;;;;;;;;;;4990893;28;20137;-87
2021/06/15 04:54:48;;;;;;;13.98;4.40;;;;;;;;;;5068694;28;20044;-89
2021/06/15 04:57:21;;;;;;;15.23;4.22;;;;;;;;;;5037949;28;20450;-87
2021/06/15 04:59:50;;;;;;;12.25;4.10;;;;;;;;;;4971375;28;20055;-88
2021/06/15 05:02:20;;;;;;;13.60;3.97;;;;;;;;;;4971254;28;20094;-87
2021/06/15 05:04:48;;;;;;;10.90;3.60;;;;;;;;;;5071904;28;20076;-86
2021/06/15 05:07:17;;;;;;;9.02;3.08;;;;;;;;;;5091983;28;20047;-86
2021/06/15 05:09:45;;;;;;;8.82;3.63;;;;;;;;;;5079511;28;20132;-85
2021/06/15 05:12:13;;;;;;;7.18;2.53;;;;;;;;;;5073866;28;20044;-86
2021/06/15 05:14:42;;;;;;;13.25;3.97;;;;;;;;;;5057530;28;20063;-86
2021/06/15 05:17:09;;;;;;;9.23;2.28;;;;;;;;;;5036876;28;20209;-86
2021/06/15 05:19:41;;;;;;;11.68;2.65;;;;;;;;;;5053854;28;20874;-87
2021/06/15 05:22:17;;;;;;;65.22;5.30;;;;;;;;;;5037172;28;20055;-86
2021/06/15 05:24:48;;;;;;;12.23;2.83;;;;;;;;;;4970214;28;20892;-86
2021/06/15 05:27:16;;;;;;;5.85;2.10;;;;;;;;;;5037041;28;20142;-86
2021/06/15 05:29:44;;;;;;;7.80;2.00;;;;;;;;;;5036610;28;20130;-86
2021/06/15 05:32:11;;;;;;;8.38;2.13;;;;;;;;;;5072665;28;20127;-86
2021/06/15 05:34:38;;;;;;;8.95;2.00;;;;;;;;;;5075003;28;20104;-87
2021/06/15 05:37:06;;;;;;;5.75;1.70;;;;;;;;;;5056766;28;20055;-87
2021/06/15 05:39:34;;;;;;;6.15;1.80;;;;;;;;;;5079512;28;20083;-85
2021/06/15 05:42:01;;;;;;;6.15;2.20;;;;;;;;;;5102157;28;20048;-87
2021/06/15 05:44:28;;;;;;;6.25;1.80;;;;;;;;;;5103707;28;20063;-83
2021/06/15 05:46:56;;;;;;;10.38;1.85;;;;;;;;;;5084117;28;20080;-87
2021/06/15 05:49:23;;;;;;;7.60;2.40;;;;;;;;;;5086640;28;20075;-85
2021/06/15 05:51:57;;;;;;;4.55;1.63;;;;;;;;;;5084085;28;20131;-86
2021/06/15 05:54:24;;;;;;;6.90;2.20;;;;;;;;;;5082454;28;20044;-86
2021/06/15 05:56:52;;;;;;;13.20;2.67;;;;;;;;;;5081084;28;20044;-86
2021/06/15 05:59:19;;;;;;;8.25;2.40;;;;;;;;;;5084102;28;20244;-86
2021/06/15 06:01:47;;;;;;;9.18;1.88;;;;;;;;;;5083071;28;20079;-86
2021/06/15 06:04:26;;;;;;;11.18;2.67;;;;;;;;;;5083744;28;20526;-86
2021/06/15 06:09:41;;;;;;;5.78;2.20;;;;;;;;;;5088396;28;20072;-87
2021/06/15 06:15:40;;;;;;;15.45;2.35;;;;;;;;;;5096365;28;20039;-85
2021/06/15 06:18:09;;;;;;;5.00;1.90;;;;;;;;;;5076480;28;20044;-85
2021/06/15 06:20:37;;;;;;;12.15;2.22;;;;;;;;;;5076279;28;20044;-85
2021/06/15 06:23:15;;;;;;;10.52;2.55;;;;;;;;;;5075614;28;20135;-86
2021/06/15 06:25:42;;;;;;;4.45;1.80;;;;;;;;;;5075611;28;20044;-86
2021/06/15 06:28:09;;;;;;;7.95;2.05;;;;;;;;;;5075882;28;20056;-85
2021/06/15 06:30:37;;;;;;;15.80;2.65;;;;;;;;;;5057017;28;20133;-86
2021/06/15 06:33:15;;;;;;;5.80;2.15;;;;;;;;;;5072969;28;20079;-84
2021/06/15 06:35:42;;;;;;;6.65;2.13;;;;;;;;;;5067183;28;20054;-86
2021/06/15 06:38:10;;;;;;;5.82;1.83;;;;;;;;;;5059095;28;20058;-86
2021/06/15 06:40:37;;;;;;;5.22;2.10;;;;;;;;;;5076975;28;20040;-86
2021/06/15 06:43:04;;;;;;;8.70;2.65;;;;;;;;;;5094548;28;20545;-85
2021/06/15 06:45:32;;;;;;;11.75;2.50;;;;;;;;;;5094625;28;20128;-86
2021/06/15 06:48:00;;;;;;;10.15;2.35;;;;;;;;;;5077320;28;20048;-86
2021/06/15 06:50:27;;;;;;;10.10;1.92;;;;;;;;;;5094668;28;20134;-86
2021/06/15 06:52:54;;;;;;;6.32;1.80;;;;;;;;;;5076354;28;20079;-86
2021/06/15 06:55:22;;;;;;;8.35;1.85;;;;;;;;;;5077493;28;20059;-86
2021/06/15 06:57:49;;;;;;;5.72;2.03;;;;;;;;;;5076613;28;20453;-85
2021/06/15 07:00:21;;;;;;;7.03;2.13;;;;;;;;;;5076645;28;20112;-86
2021/06/15 07:02:49;;;;;;;8.02;2.92;;;;;;;;;;5096047;28;20048;-86
2021/06/15 07:05:16;;;;;;;12.13;1.80;;;;;;;;;;5078228;28;20056;-88
2021/06/15 07:07:43;;;;;;;7.82;2.10;;;;;;;;;;5061164;28;20084;-88
2021/06/15 07:10:11;;;;;;;11.55;2.45;;;;;;;;;;5060243;28;20496;-87
2021/06/15 07:12:39;;;;;;;7.90;1.95;;;;;;;;;;5087180;28;20723;-87
2021/06/15 07:15:07;;;;;;;11.00;2.70;;;;;;;;;;5076265;28;20048;-88
2021/06/15 07:17:34;;;;;;;15.43;2.30;;;;;;;;;;5076496;28;20121;-88
2021/06/15 07:20:01;;;;;;;4.65;1.80;;;;;;;;;;5077068;28;20127;-88
2021/06/15 07:22:28;;;;;;;6.45;2.13;;;;;;;;;;5094778;28;20413;-88
2021/06/15 07:24:55;;;;;;;17.02;2.33;;;;;;;;;;4991154;28;20880;-88
2021/06/15 07:27:23;;;;;;;18.33;2.97;;;;;;;;;;5058301;28;20090;-87
2021/06/15 07:29:54;;;;;;;7.80;1.73;;;;;;;;;;5058732;28;20133;-85
2021/06/15 07:32:21;;;;;;;9.27;2.22;;;;;;;;;;5075424;28;20048;-87
2021/06/15 07:34:49;;;;;;;7.85;2.20;;;;;;;;;;5075555;28;20539;-86
2021/06/15 07:37:16;;;;;;;11.48;2.22;;;;;;;;;;5093649;28;20047;-86
2021/06/15 07:39:43;;;;;;;36.03;5.50;;;;;;;;;;5075410;28;20052;-86
2021/06/15 07:42:11;;;;;;;12.02;2.10;;;;;;;;;;5067115;28;20747;-86
2021/06/15 07:44:38;;;;;;;12.90;3.70;;;;;;;;;;5074872;28;20047;-86
2021/06/15 07:47:05;;;;;;;70.45;6.85;;;;;;;;;;5075708;28;20090;-86
2021/06/15 07:49:32;;;;;;;9.18;2.28;;;;;;;;;;5075923;28;20051;-86
2021/06/15 07:52:01;;;;;;;8.88;2.25;;;;;;;;;;5074996;28;20090;-86
2021/06/15 07:54:34;;;;;;;13.10;2.40;;;;;;;;;;5093286;28;20063;-86
2021/06/15 07:57:02;;;;;;;6.25;1.67;;;;;;;;;;5092755;28;20051;-86
2021/06/15 07:59:29;;;;;;;4.90;1.88;;;;;;;;;;5074784;28;20501;-86
2021/06/15 08:01:56;;;;;;;17.85;2.38;;;;;;;;;;5074297;28;20106;-86
2021/06/15 08:04:25;;;;;;;14.55;1.95;;;;;;;;;;5078372;28;20139;-86
2021/06/15 08:06:53;;;;;;;14.52;2.22;;;;;;;;;;5072601;28;20106;-86
2021/06/15 08:09:20;;;;;;;10.70;1.70;;;;;;;;;;5090095;28;20056;-85
2021/06/15 08:11:47;;;;;;;13.00;2.75;;;;;;;;;;5084222;28;20064;-86
2021/06/15 08:14:15;;;;;;;13.70;2.03;;;;;;;;;;5074000;28;20103;-86
2021/06/15 08:16:42;;;;;;;10.60;2.00;;;;;;;;;;4971272;28;20137;-86
2021/06/15 08:19:09;;;;;;;4.93;1.63;;;;;;;;;;5037861;28;20136;-86
2021/06/15 08:21:43;;;;;;;12.10;6.70;;;;;;;;;;4970744;28;20541;-86
2021/06/15 08:24:14;;;;;;;4.85;1.88;;;;;;;;;;5036769;28;20157;-86
2021/06/15 08:26:43;;;;;;;9.82;1.85;;;;;;;;;;5036742;28;20054;-86
2021/06/15 08:29:11;;;;;;;6.95;1.85;;;;;;;;;;5037167;28;20133;-86
2021/06/15 08:31:39;;;;;;;11.27;2.53;;;;;;;;;;5090186;28;20056;-86
2021/06/15 08:34:17;;;;;;;12.95;2.42;;;;;;;;;;5076146;28;20043;-86
2021/06/15 08:36:45;;;;;;;8.18;1.77;;;;;;;;;;5074934;28;20522;-85
2021/06/15 08:39:17;;;;;;;7.38;2.17;;;;;;;;;;5074176;28;20047;-86
2021/06/15 08:41:44;;;;;;;7.68;1.88;;;;;;;;;;5085218;28;20127;-86
2021/06/15 08:44:12;;;;;;;3.25;1.45;;;;;;;;;;5091285;28;20170;-86
2021/06/15 08:46:39;;;;;;;7.65;2.08;;;;;;;;;;5092940;28;20082;-86
2021/06/15 08:49:06;;;;;;;12.93;2.13;;;;;;;;;;5075315;28;20072;-86
2021/06/15 08:51:35;;;;;;;11.90;2.55;;;;;;;;;;5073532;28;20392;-86
2021/06/15 08:54:03;;;;;;;7.55;1.80;;;;;;;;;;5074155;28;20052;-86
2021/06/15 08:56:35;;;;;;;7.13;1.48;;;;;;;;;;5074569;28;20112;-86
2021/06/15 08:59:23;;;;;;;6.35;1.40;;;;;;;;;;5073683;28;20095;-86
2021/06/15 09:01:51;;;;;;;5.22;1.60;;;;;;;;;;5092212;28;20055;-86
2021/06/15 09:04:18;;;;;;;8.90;1.80;;;;;;;;;;5092125;28;20064;-86
2021/06/15 09:06:46;;;;;;;6.35;1.63;;;;;;;;;;5056720;28;20090;-86
2021/06/15 09:09:19;;;;;;;7.50;2.03;;;;;;;;;;5022254;28;20107;-86
2021/06/15 09:11:48;;;;;;;12.48;1.90;;;;;;;;;;5066462;28;20083;-86
2021/06/15 09:14:16;;;;;;;4.43;1.30;;;;;;;;;;5073274;28;20083;-86
2021/06/15 09:16:47;;;;;;;7.22;1.80;;;;;;;;;;5074067;28;20071;-86
2021/06/15 09:19:21;;;;;;;10.30;1.50;;;;;;;;;;5079680;28;20052;-84
2021/06/15 09:21:50;;;;;;;8.30;1.92;;;;;;;;;;5036832;28;20675;-86
2021/06/15 09:24:25;;;;;;;11.07;2.35;;;;;;;;;;5059730;28;20479;-86
2021/06/15 09:26:53;;;;;;;10.38;1.70;;;;;;;;;;5091551;28;20768;-86
2021/06/15 09:29:51;;;;;;;6.00;1.30;;;;;;;;;;5073945;28;20066;-86
2021/06/15 09:32:20;;;;;;;5.45;1.30;;;;;;;;;;5075595;28;20086;-86
2021/06/15 09:34:49;;;;;;;5.55;1.48;;;;;;;;;;5091724;28;20588;-86
2021/06/15 09:37:17;;;;;;;7.65;1.55;;;;;;;;;;5091650;28;20082;-85
2021/06/15 09:39:46;;;;;;;7.32;1.30;;;;;;;;;;5073954;28;20155;-86
2021/06/15 09:42:13;;;;;;;10.80;1.20;;;;;;;;;;5047674;28;20054;-85
2021/06/15 09:44:40;;;;;;;3.05;1.17;;;;;;;;;;4989694;28;20859;-86
2021/06/15 09:47:08;;;;;;;6.50;1.65;;;;;;;;;;5055715;28;20099;-86
2021/06/15 09:49:40;;;;;;;8.68;1.60;;;;;;;;;;5060707;28;20050;-87
2021/06/15 09:52:13;;;;;;;4.78;1.50;;;;;;;;;;5092112;28;20700;-86
2021/06/15 09:54:42;;;;;;;3.80;1.17;;;;;;;;;;5073567;28;20079;-86
2021/06/15 09:57:10;;;;;;;8.40;1.42;;;;;;;;;;5073051;28;20128;-87
2021/06/15 09:59:37;;;;;;;5.60;1.15;;;;;;;;;;5090751;28;20723;-87
2021/06/15 10:02:05;;;;;;;7.82;1.40;;;;;;;;;;5073767;28;20127;-87
2021/06/15 10:04:32;;;;;;;3.67;0.93;;;;;;;;;;5073847;28;20052;-87
2021/06/15 10:06:59;;;;;;;8.15;1.50;;;;;;;;;;5073813;28;20087;-85
2021/06/15 10:09:27;;;;;;;5.75;1.10;;;;;;;;;;5090122;28;20127;-87
2021/06/15 10:11:55;;;;;;;3.97;1.10;;;;;;;;;;5056170;28;20448;-86
2021/06/15 10:14:23;;;;;;;3.72;1.13;;;;;;;;;;5073359;28;20612;-87
2021/06/15 10:16:50;;;;;;;89.13;5.00;;;;;;;;;;5068533;28;20064;-88
2021/06/15 10:19:18;;;;;;;6.05;1.33;;;;;;;;;;5072046;28;20068;-87
2021/06/15 10:21:45;;;;;;;5.60;1.17;;;;;;;;;;5036013;28;20082;-87
2021/06/15 10:24:18;;;;;;;3.17;0.68;;;;;;;;;;5054448;28;20057;-86
2021/06/15 10:27:07;;;;;;;4.82;1.40;;;;;;;;;;4969927;28;20046;-86
2021/06/15 10:29:35;;;;;;;9.55;1.15;;;;;;;;;;5054373;28;20049;-87
2021/06/15 10:32:14;;;;;;;3.60;0.88;;;;;;;;;;5071766;28;20083;-87
2021/06/15 10:34:45;;;;;;;4.88;0.93;;;;;;;;;;5058923;28;20074;-87
2021/06/15 10:37:31;;;;;;;9.18;1.35;;;;;;;;;;5072706;28;20091;-87
2021/06/15 10:40:00;;;;;;;4.10;1.10;;;;;;;;;;5055825;28;20078;-87
2021/06/15 10:42:37;;;;;;;14.27;1.25;;;;;;;;;;5082940;28;20062;-88
2021/06/15 10:45:13;;;;;;;5.63;1.58;;;;;;;;;;5073091;28;20075;-87
2021/06/15 10:47:41;;;;;;;30.95;2.38;;;;;;;;;;5090933;28;20294;-87
2021/06/15 10:50:10;;;;;;;11.35;1.35;;;;;;;;;;5073174;28;20598;-87
2021/06/15 10:53:04;;;;;;;5.65;1.15;;;;;;;;;;5073559;28;20114;-87
2021/06/15 10:55:42;;;;;;;7.80;1.17;;;;;;;;;;5073530;28;20135;-88
2021/06/15 10:58:09;;;;;;;3.42;0.85;;;;;;;;;;5074025;28;20086;-87
2021/06/15 11:00:43;;;;;;;3.78;1.00;;;;;;;;;;5073318;28;20106;-88
2021/06/15 11:03:17;;;;;;;4.80;1.20;;;;;;;;;;5072315;28;20547;-88
2021/06/15 11:06:06;;;;;;;3.33;0.70;;;;;;;;;;5056623;28;20100;-88
2021/06/15 11:08:34;;;;;;;6.03;1.90;;;;;;;;;;5060703;28;20478;-88
2021/06/15 11:11:03;;;;;;;8.52;1.67;;;;;;;;;;5072876;28;20084;-89
2021/06/15 11:13:48;;;;;;;5.30;1.35;;;;;;;;;;5090768;28;20093;-88
2021/06/15 11:16:44;;;;;;;3.53;0.65;;;;;;;;;;5070738;28;20087;-88
2021/06/15 11:19:25;;;;;;;13.57;1.67;;;;;;;;;;5066396;28;20052;-87
2021/06/15 11:21:55;;;;;;;3.78;1.10;;;;;;;;;;5089773;28;20044;-88
2021/06/15 11:25:11;;;;;;;7.13;1.02;;;;;;;;;;5076075;28;20048;-87
2021/06/15 11:27:33;;;;;;;8.20;1.38;;;;;;;;;;5072878;28;20095;-87
2021/06/15 11:30:13;;;;;;;4.40;0.90;;;;;;;;;;5094049;28;20443;-88
2021/06/15 11:33:05;;;;;;;2.85;0.98;;;;;;;;;;5075227;28;20148;-87
2021/06/15 11:35:39;;;;;;;5.53;1.25;;;;;;;;;;5071275;28;20191;-88
2021/06/15 11:38:13;;;;;;;4.35;0.90;;;;;;;;;;5076815;28;20099;-88
2021/06/15 11:40:42;;;;;;;10.77;1.77;;;;;;;;;;5090002;28;20079;-88
2021/06/15 11:43:12;;;;;;;9.02;1.40;;;;;;;;;;5072082;28;20058;-88
2021/06/15 11:45:42;;;;;;;9.95;1.15;;;;;;;;;;5076959;28;20541;-88
2021/06/15 11:48:33;;;;;;;2.95;1.20;;;;;;;;;;5076636;28;20498;-88
2021/06/15 11:51:05;;;;;;;14.00;1.25;;;;;;;;;;5076714;28;20044;-87
2021/06/15 11:53:36;;;;;;;6.65;1.23;;;;;;;;;;5094258;28;20449;-88
2021/06/15 11:56:04;;;;;;;10.18;1.58;;;;;;;;;;5076706;28;20083;-88
2021/06/15 11:58:36;;;;;;;8.77;1.30;;;;;;;;;;5059656;28;20104;-88
2021/06/15 12:01:11;;;;;;;4.40;1.27;;;;;;;;;;5058782;28;20108;-88
2021/06/15 12:03:39;;;;;;;3.20;1.05;;;;;;;;;;5075977;28;20060;-89
2021/06/15 12:06:07;;;;;;;6.43;1.08;;;;;;;;;;5058912;28;20080;-88
2021/06/15 12:08:39;;;;;;;7.50;1.00;;;;;;;;;;4992063;28;20105;-88
2021/06/15 12:11:09;;;;;;;4.82;0.90;;;;;;;;;;5058476;28;20867;-86
2021/06/15 12:13:37;;;;;;;4.07;1.00;;;;;;;;;;5076155;28;20044;-89
2021/06/15 12:16:30;;;;;;;6.93;1.08;;;;;;;;;;5080001;28;20048;-87
2021/06/15 12:18:59;;;;;;;11.25;1.40;;;;;;;;;;5076473;28;20051;-88
2021/06/15 12:21:27;;;;;;;6.70;0.95;;;;;;;;;;5092859;28;20066;-87
2021/06/15 12:23:56;;;;;;;7.43;1.17;;;;;;;;;;5075908;28;20087;-88
2021/06/15 12:26:29;;;;;;;4.07;1.33;;;;;;;;;;5076826;28;20139;-88
2021/06/15 12:29:00;;;;;;;5.68;1.17;;;;;;;;;;5076419;28;20113;-88
2021/06/15 12:31:53;;;;;;;5.93;1.10;;;;;;;;;;5076311;28;20044;-88
2021/06/15 12:34:22;;;;;;;5.68;1.25;;;;;;;;;;5075239;28;20123;-87
2021/06/15 12:36:51;;;;;;;5.03;0.93;;;;;;;;;;5075724;28;20504;-87
2021/06/15 12:39:29;;;;;;;3.95;1.05;;;;;;;;;;5093801;28;20071;-87
2021/06/15 12:42:03;;;;;;;2.47;0.95;;;;;;;;;;5075632;28;20132;-88
2021/06/15 12:44:32;;;;;;;4.00;0.88;;;;;;;;;;5093609;28;20531;-87
2021/06/15 12:47:04;;;;;;;4.20;1.00;;;;;;;;;;5075588;28;20051;-89
2021/06/15 12:49:33;;;;;;;4.65;0.98;;;;;;;;;;5075162;28;20587;-87
2021/06/15 12:52:12;;;;;;;5.88;1.02;;;;;;;;;;5075556;28;20054;-87
2021/06/15 12:54:45;;;;;;;2.15;0.70;;;;;;;;;;5075080;28;20159;-88
2021/06/15 12:57:15;;;;;;;2.30;0.77;;;;;;;;;;5076105;28;20074;-88
2021/06/15 13:00:01;;;;;;;44.80;4.15;;;;;;;;;;5076396;28;20058;-88
2021/06/15 13:02:36;;;;;;;4.53;0.93;;;;;;;;;;5094299;28;20044;-87
2021/06/15 13:05:22;;;;;;;4.93;0.90;;;;;;;;;;5074595;28;20109;-88
2021/06/15 13:07:57;;;;;;;15.38;1.58;;;;;;;;;;5075812;28;20098;-88
2021/06/15 13:10:25;;;;;;;5.77;0.87;;;;;;;;;;5071641;28;20048;-88
2021/06/15 13:12:53;;;;;;;14.07;1.40;;;;;;;;;;5075221;28;20076;-87
2021/06/15 13:15:22;;;;;;;11.18;1.10;;;;;;;;;;5092811;28;20048;-87
2021/06/15 13:18:03;;;;;;;3.80;0.82;;;;;;;;;;5075763;28;20044;-87
2021/06/15 13:20:30;;;;;;;5.57;0.98;;;;;;;;;;5074941;28;20048;-88
2021/06/15 13:22:58;;;;;;;5.68;1.25;;;;;;;;;;5074878;28;20086;-88
2021/06/15 13:25:33;;;;;;;2.90;0.95;;;;;;;;;;5075310;28;20052;-88
2021/06/15 13:28:01;;;;;;;13.43;1.63;;;;;;;;;;5074742;28;20752;-88
2021/06/15 13:30:43;;;;;;;7.68;0.77;;;;;;;;;;5074528;28;20485;-87
2021/06/15 13:33:25;;;;;;;3.10;0.80;;;;;;;;;;5092172;28;20044;-89
2021/06/15 13:35:55;;;;;;;11.45;1.13;;;;;;;;;;5067494;28;20050;-88
2021/06/15 13:38:22;;;;;;;12.68;1.13;;;;;;;;;;4993884;28;20058;-89
2021/06/15 13:40:57;;;;;;;7.57;0.85;;;;;;;;;;5092943;28;20840;-89
2021/06/15 13:43:29;;;;;;;4.50;0.75;;;;;;;;;;5074735;28;20085;-88
2021/06/15 13:46:07;;;;;;;1.90;0.70;;;;;;;;;;5074913;28;20094;-89
2021/06/15 13:48:39;;;;;;;4.85;1.17;;;;;;;;;;5092946;28;20186;-87
2021/06/15 13:51:13;;;;;;;2.00;0.70;;;;;;;;;;5092597;28;20127;-88
2021/06/15 13:53:40;;;;;;;4.43;0.70;;;;;;;;;;5074343;28;20419;-88
2021/06/15 13:56:13;;;;;;;3.40;0.70;;;;;;;;;;5035442;28;20040;-87
2021/06/15 13:58:40;;;;;;;1.52;0.52;;;;;;;;;;5092078;28;20070;-88
2021/06/15 14:01:09;;;;;;;5.22;0.70;;;;;;;;;;5074666;28;20154;-89
2021/06/15 14:03:36;;;;;;;4.28;0.60;;;;;;;;;;5073757;28;20714;-88
2021/06/15 14:06:05;;;;;;;4.03;0.73;;;;;;;;;;5084374;28;20076;-89
2021/06/15 14:08:34;;;;;;;12.30;1.27;;;;;;;;;;5053104;28;20052;-88
2021/06/15 14:11:02;;;;;;;2.53;0.75;;;;;;;;;;5051373;28;20359;-88
2021/06/15 14:13:31;;;;;;;1.55;0.63;;;;;;;;;;5073890;28;20055;-88
2021/06/15 14:16:10;;;;;;;39.17;2.42;;;;;;;;;;5073852;28;20047;-88
2021/06/15 14:18:44;;;;;;;2.58;0.40;;;;;;;;;;5074870;28;20055;-88
2021/06/15 14:21:25;;;;;;;1.77;0.77;;;;;;;;;;5092751;28;20059;-89
2021/06/15 14:23:56;;;;;;;2.63;0.60;;;;;;;;;;5073991;28;20059;-88
2021/06/15 14:26:25;;;;;;;57.92;2.53;;;;;;;;;;5074777;28;20051;-88
2021/06/15 14:28:55;;;;;;;5.05;1.02;;;;;;;;;;5053451;28;20076;-88
2021/06/15 14:31:32;;;;;;;6.05;0.80;;;;;;;;;;5053926;28;20500;-88
2021/06/15 14:34:01;;;;;;;5.18;0.90;;;;;;;;;;5065933;28;20052;-87
2021/06/15 14:36:41;;;;;;;5.03;0.80;;;;;;;;;;5072481;28;20502;-88
2021/06/15 14:39:24;;;;;;;2.67;0.77;;;;;;;;;;5056154;28;20090;-88
2021/06/15 14:41:52;;;;;;;3.75;0.68;;;;;;;;;;5055620;28;20047;-89
2021/06/15 14:44:26;;;;;;;3.30;0.70;;;;;;;;;;5056050;28;20502;-88
2021/06/15 14:47:00;;;;;;;1.77;0.68;;;;;;;;;;5054949;28;20097;-88
2021/06/15 14:49:37;;;;;;;4.50;0.63;;;;;;;;;;4988212;28;20491;-87
2021/06/15 14:52:16;;;;;;;1.25;0.60;;;;;;;;;;5039935;28;20105;-89
2021/06/15 14:54:49;;;;;;;19.70;1.75;;;;;;;;;;5072239;28;20082;-87
2021/06/15 14:57:19;;;;;;;7.32;1.52;;;;;;;;;;5075741;28;20048;-88
2021/06/15 14:59:55;;;;;;;;;;;;;;;;;;5094914;28;20059;-89
2021/06/15 15:02:27;;;;;;;2.90;0.75;;;;;;;;;;5087211;28;19959;-87